Knoxville, AR

7:04 PM CST on December 17, 2014 (GMT -0600)
The GRAPHIC(West Main) | Change Station
CLOSE
Current Station
Personal Weather Station
Location: Clarksville, AR
Elevation: 410 ft
Nearby Weather Stations

Elev 410 ft 35.47 °N, 93.50 °W | Updated 1 second ago

Rain
Rain
36.2 °F
Feels Like 36 °F
N
2.2
Wind Variable Wind from ENE
Gusts 2.7 mph

Today
High -- | Low -- °F
--% Chance of Precip.
Yesterday
High -- | Low -- °F
Precip. -- in
7:16 AM 5:02 PM
Waning Crescent, 18% visible
Pressure 30.25 in
Visibility 10.0 miles
Clouds Overcast 8000 ft
Windchill 36 °F
Dew Point 35 °F
Humidity 97%
Rainfall 0.24 in
Snow Depth Not available.
UV 0 out of 12
Pollen 3.90 out of 12
Air Quality Not available.
Flu Activity Not available.
METAR KRUE 180053Z AUTO 00000KT 10SM OVC080 03/01 A3025 RMK AO2 RAE2354UPB2354E09 SLP243 P0000 T00280011

More Conditions Fewer Conditions

Pressure 30.25 in
Visibility 10.0 miles
Clouds Overcast 8000 ft
Windchill 36 °F
Dew Point 35 °F
Humidity 97%
Rainfall 0.24 in
Snow Depth Not available.
UV 0 out of 12
Pollen 3.90 out of 12
Air Quality Not available.
Flu Activity Not available.
METAR KRUE 180053Z AUTO 00000KT 10SM OVC080 03/01 A3025 RMK AO2 RAE2354UPB2354E09 SLP243 P0000 T00280011

More Conditions Fewer Conditions

10-Day Weather Forecast

Almanac

Astronomy

Dec. 17, 2014 Rise Set
Actual Time
Civil Twilight
Nautical Twilight
Astronomical Twilight
Moon
Length of Visible Light
Length of Day
Tomorrow will be .
, % of the Moon is Illuminated

Today's Extremes

State Highs State Lows

Community

WunderPhotos

Upload Photos

1,778,843 photos uploaded!

WunderBlogs® & News

Nearby

Air Quality

  Air Quality AQ Index Pollutant
Not available.

Snow Depth

Station Depth Elevation

Earthquake Activity

City Distance Mag. Time & Date
Minimum magnitude displayed is 2.5.

Coastal Water Temperatures

Place Temperature

Nearby Weather Stations